TAF and METAR

Decoding for American and Canadian METARs and TAFs is not fully implemented.

Could not understand the following METAR

KPHX 020851Z 35005KT 10SM FEW130 32/02 A2982 RMK AO2 SLP075 T03170022 51006

TAF for Phoenix Sky Harbor International Airport

KPHX 020849Z 0209/0312 VRB05KT P6SM FEW130 FM021100 10006KT P6SM BKN100 FM021800 18006KT P6SM BKN100 FM022200 24009KT P6SM SCT100 SCT150 FM030200 VRB06KT P6SM SCT120 BKN150
Report created 2. jul 10:49

between 2. jul 11:00 - 3. jul 14:00

wind 5 knots from various directions
Phoenix Sky Harbor International Airport in United States of America at 336m

Latest 5 airports